x

South Hecate Strait (46185) Wave Buoy

11:00pm - Sat 23rd Sep 2017 All times are PDT. -7 hours from GMT.

  • Sig Wave height 2.6ft
  • Peak Period 4s
  • Wind
    16mph, 20mph gusts
  • Sea Temp 59°f
  • Air Temp 58°f
  • Sea Pressure 1017.5mb
  • South Hecate Strait
  • South Hecate Strait

More Historic Weather Station data

Upgrade to MSW Pro to gain access to the past 30 days of data for over 8000 Wavebouys and Weather Stations around the globe.

Join

Comparision Forecast

View Surf forecast
   
Sat 09/23 11:00pm 2.5ft 4s 16 20 mph 1017.5mb 59f 58f
10:00pm 2.5ft 4s 16 18 mph 1017.6mb 59f 58f
9:00pm 2.5ft 4s 16 18 mph 1017.7mb 59f 58f
8:00pm 2.5ft 4s 16 18 mph 1017.6mb 60f 58f
7:00pm 2.5ft 4s 13 18 mph 1017.6mb 60f 57f
6:00pm 2.5ft 4s 16 18 mph 1017.7mb 60f 57f
5:00pm 2.5ft 4s 13 16 mph 1017.5mb 60f 57f
4:00pm 2.5ft 6s 16 18 mph 1017.4mb 60f 57f
3:00pm 2.5ft 6s 11 13 mph 1017.2mb 60f 57f
2:00pm 2.5ft 7s 11 13 mph 1017.5mb 60f 57f
1:00pm 2.5ft 3s 13 16 mph 1017.5mb 60f 56f
12:00pm 2.5ft 3s 18 20 mph 1017.5mb 60f 56f
11:00am 2ft 3s 18 20 mph 1017.4mb 60f 55f
10:00am 1.6ft 3s 13 18 mph 1017.4mb 60f 56f
9:00am 1.3ft 14s 13 16 mph 1017.5mb 60f 55f
8:00am 1.3ft 6s 11 13 mph 1017.3mb 59f 56f
7:00am 1.3ft 7s 9 11 mph 1017.7mb 59f 56f
6:00am 1.3ft 14s 9 11 mph 1016.9mb 60f 57f
5:00am 1.3ft 6s 4 4 mph 1016.8mb 60f 58f
4:00am 1.6ft 7s 2 4 mph 1016.7mb 60f 57f
3:00am 1.6ft 6s 4 4 mph 1016.5mb 60f 57f
2:00am 1.6ft 13s 7 7 mph 1016.8mb 60f 57f
1:00am 1.6ft 3s 9 11 mph 1016.8mb 60f 57f
12:00am 1.6ft 3s 11 11 mph 1017mb 60f 57f
Fri 09/22 11:00pm 1.6ft 3s 11 13 mph 1016.9mb 60f 57f
10:00pm 1.6ft 3s 13 16 mph 1017.1mb 60f 56f
9:00pm 1.6ft 3s 13 16 mph 1017.1mb 60f 56f
8:00pm 1.3ft 3s 16 18 mph 1017mb 60f 55f
7:00pm 1.3ft 13s 13 16 mph 1017.3mb 60f 55f
6:00pm 1ft 13s 13 16 mph 1017.1mb 60f 54f
5:00pm 1.3ft 7s 11 11 mph 1017.6mb 60f 56f
4:00pm 1.6ft 7s 9 13 mph 1017.7mb 60f 56f
3:00pm 1.6ft 5s 9 9 mph 1018.1mb 60f 55f
2:00pm 1.6ft 6s 4 4 mph 1018.4mb 60f 56f
1:00pm 1.6ft 7s 2 4 mph 1018.2mb 60f 56f
12:00pm 2ft 7s 4 7 mph 1018.8mb 60f 56f
11:00am 2ft 13s 9 11 mph 1019mb 60f 55f
10:00am 2.5ft 4s 11 11 mph 1018.9mb 60f 55f
9:00am 2.5ft 4s 9 11 mph 1018.8mb 60f 55f
8:00am 2.5ft 5s 11 16 mph 1018.9mb 60f 55f
7:00am 3ft 5s 13 16 mph 1018.6mb 60f 55f
6:00am 3ft 6s 16 18 mph 1018.7mb 60f 56f
5:00am 3.5ft 6s 16 18 mph 1018.6mb 60f 56f
4:00am 3.5ft 6s 18 20 mph 1018.6mb 60f 56f
3:00am 4ft 6s 16 18 mph 1018.6mb 60f 56f
2:00am 4ft 6s 18 20 mph 1018.8mb 60f 56f
1:00am 4.5ft 6s 16 18 mph 1018.6mb 60f 56f
12:00am 5ft 6s 18 22 mph 1018.5mb 60f 56f
Thu 09/21 11:00pm 5ft 6s 20 22 mph 1018.3mb 60f 56f
10:00pm 5ft 6s 20 25 mph 1018.4mb 60f 57f
9:00pm 5ft 5s 22 27 mph 1018.3mb 60f 57f
8:00pm 5ft 6s 22 27 mph 1018mb 60f 57f
7:00pm 4.5ft 6s 22 25 mph 1018mb 60f 56f
6:00pm 5ft 6s 20 25 mph 1018.1mb 60f 56f
5:00pm 5ft 6s 22 27 mph 1018mb 60f 56f
4:00pm 5ft 5s 22 27 mph 1017.9mb 60f 56f
3:00pm 5ft 6s 22 27 mph 1017.9mb 60f 56f
2:00pm 5ft 6s 20 22 mph 1017.9mb 60f 55f
1:00pm 5ft 7s 18 22 mph 1017.7mb 60f 55f
12:00pm 5.5ft 6s 20 25 mph 1017.8mb 60f 55f
9:00am 6ft 6s 22 27 mph 1017.6mb 60f 54f
7:00am 5.5ft 6s 22 29 mph 1016.8mb 60f 53f
6:00am 5.5ft 6s 22 27 mph 1016.3mb 60f 55f
5:00am  -   -  22
mph
- - -
4:00am 5.5ft 6s 22 25 mph 1015.4mb 60f 56f
3:00am 6ft 6s 25 27 mph 1015mb 60f 56f
2:00am 6ft 6s 22 27 mph 1014.7mb 60f 56f
1:00am 6ft 7s 22 27 mph 1014.5mb 60f 56f
12:00am 6.5ft 6s 22 29 mph 1014.3mb 60f 56f
Wed 09/20 11:00pm 5.5ft 6s 25 31 mph 1014mb 60f 57f
10:00pm 5ft 6s 22 27 mph 1013.8mb 60f 57f
9:00pm 5ft 6s 20 25 mph 1013.7mb 60f 57f
8:00pm 6ft 7s 22 27 mph 1013.3mb 60f 57f
7:00pm 6ft 6s 20 25 mph 1012.8mb 60f 57f
6:00pm 6ft 7s 25
mph
1012.5mb 60f 56f
5:00pm  -   -  25
mph
1012.1mb - 56f
4:00pm 6ft 7s 27 31 mph 1011.9mb 60f 56f
3:00pm 6.5ft 7s 27 31 mph 1011.2mb 60f 55f
2:00pm 6.5ft 6s 27 31 mph 1010.8mb 60f 55f
1:00pm 6ft 7s 25 27 mph 1010.5mb 60f 55f
12:00pm 6ft 7s 25 29 mph 1010.2mb 60f 55f
11:00am 7ft 7s 25 27 mph 1009.8mb 60f 55f
10:00am 6.5ft 6s 25 31 mph 1009.5mb 60f 54f
9:00am 6ft 6s 27 31 mph 1009.3mb 60f 54f